createdAt,value
2018-06-17T00:00:49.421Z,83.40
2018-06-17T00:03:17.702Z,83.50
2018-06-17T00:05:45.970Z,84.00
2018-06-17T00:08:15.200Z,84.80
2018-06-17T00:10:43.485Z,84.20
2018-06-17T00:13:12.103Z,84.40
2018-06-17T00:15:40.445Z,84.10
2018-06-17T00:18:08.822Z,83.60
2018-06-17T00:20:37.085Z,84.50
2018-06-17T00:23:05.369Z,84.80
2018-06-17T00:25:33.649Z,84.70
2018-06-17T00:28:01.941Z,84.90
2018-06-17T00:30:30.202Z,84.40
2018-06-17T00:32:58.468Z,84.00
2018-06-17T00:35:26.729Z,83.90
2018-06-17T00:37:54.996Z,83.80
2018-06-17T00:40:23.309Z,83.50
2018-06-17T00:42:51.598Z,84.20
2018-06-17T00:45:19.905Z,83.20
2018-06-17T00:47:48.246Z,84.00
2018-06-17T00:50:16.637Z,83.30
2018-06-17T00:52:44.928Z,83.50
2018-06-17T00:55:13.181Z,83.90
2018-06-17T00:57:46.964Z,84.20
2018-06-17T01:02:43.792Z,83.70
2018-06-17T01:05:12.391Z,82.90
2018-06-17T01:07:40.770Z,82.80
2018-06-17T01:10:09.207Z,83.00
2018-06-17T01:12:37.872Z,83.50
2018-06-17T01:15:06.413Z,83.90
2018-06-17T01:17:34.763Z,83.70
2018-06-17T01:20:03.057Z,83.70
2018-06-17T01:22:31.320Z,83.40
2018-06-17T01:24:59.599Z,83.50
2018-06-17T01:27:27.911Z,83.30
2018-06-17T01:29:56.578Z,83.60
2018-06-17T01:32:24.875Z,83.50
2018-06-17T01:34:53.173Z,83.50
2018-06-17T01:37:21.532Z,84.40
2018-06-17T01:39:49.900Z,84.30
2018-06-17T01:42:18.302Z,84.50
2018-06-17T01:44:46.549Z,84.70
2018-06-17T01:47:14.805Z,85.30
2018-06-17T01:49:43.460Z,85.00
2018-06-17T01:52:11.736Z,85.70
2018-06-17T01:54:40.384Z,84.90
2018-06-17T01:57:08.809Z,85.00
2018-06-17T01:59:37.068Z,85.30
2018-06-17T02:04:38.802Z,86.80
2018-06-17T02:07:12.388Z,86.20
2018-06-17T02:09:46.125Z,86.80
2018-06-17T02:12:17.385Z,86.90
2018-06-17T02:14:53.124Z,86.40
2018-06-17T02:17:22.747Z,86.20
2018-06-17T02:19:51.580Z,86.50
2018-06-17T02:22:20.039Z,87.10
2018-06-17T02:24:48.413Z,86.60
2018-06-17T02:27:16.725Z,86.20
2018-06-17T02:29:45.421Z,86.90
2018-06-17T02:32:14.105Z,87.60
2018-06-17T02:34:42.447Z,87.40
2018-06-17T02:37:10.865Z,88.30
2018-06-17T02:39:39.133Z,87.80
2018-06-17T02:42:08.256Z,87.80
2018-06-17T02:44:36.633Z,88.00
2018-06-17T02:47:10.449Z,87.80
2018-06-17T02:49:41.029Z,88.40
2018-06-17T02:52:14.737Z,88.30
2018-06-17T02:54:45.213Z,88.00
2018-06-17T02:57:14.716Z,87.80
2018-06-17T02:59:43.711Z,88.40
2018-06-17T03:02:12.549Z,88.30
2018-06-17T03:04:40.844Z,88.40
2018-06-17T03:07:09.125Z,88.40
2018-06-17T03:09:37.999Z,88.70
2018-06-17T03:12:06.633Z,89.50
2018-06-17T03:14:34.978Z,88.80
2018-06-17T03:17:03.437Z,88.90
2018-06-17T03:19:31.772Z,89.00
2018-06-17T03:22:00.057Z,87.80
2018-06-17T03:24:33.708Z,89.40
2018-06-17T03:27:07.386Z,89.70
2018-06-17T03:29:41.124Z,88.80
2018-06-17T03:32:14.716Z,89.20
2018-06-17T03:34:43.169Z,89.20
2018-06-17T03:37:11.465Z,88.80
2018-06-17T03:39:39.760Z,88.90
2018-06-17T03:42:08.145Z,88.00
2018-06-17T03:44:36.422Z,88.00
2018-06-17T03:47:04.685Z,88.00
2018-06-17T03:49:32.989Z,87.90
2018-06-17T03:52:01.233Z,87.90
2018-06-17T03:54:29.489Z,88.00
2018-06-17T03:56:57.777Z,87.70
2018-06-17T03:59:26.052Z,88.10
2018-06-17T04:01:54.320Z,87.70
2018-06-17T04:06:52.120Z,87.80
2018-06-17T04:09:20.402Z,88.30
2018-06-17T04:11:48.689Z,88.00
2018-06-17T04:14:16.964Z,87.40
2018-06-17T04:16:45.969Z,88.10
2018-06-17T04:19:14.448Z,87.90
2018-06-17T04:21:42.706Z,88.10
2018-06-17T04:24:10.958Z,88.10
2018-06-17T04:29:07.239Z,87.70
2018-06-17T04:31:35.535Z,88.50
2018-06-17T04:34:05.347Z,87.80
2018-06-17T04:36:33.693Z,88.20
2018-06-17T04:39:01.985Z,88.30
2018-06-17T04:41:30.399Z,88.60
2018-06-17T04:43:58.681Z,88.80
2018-06-17T04:46:26.964Z,88.40
2018-06-17T04:48:55.331Z,88.80
2018-06-17T04:51:23.665Z,88.10
2018-06-17T04:53:52.089Z,88.60
2018-06-17T04:56:21.115Z,88.70
2018-06-17T05:01:17.486Z,88.50
2018-06-17T05:03:45.953Z,89.00
2018-06-17T05:06:14.305Z,88.50
2018-06-17T05:08:42.638Z,88.70
2018-06-17T05:11:11.121Z,88.50
2018-06-17T05:13:39.450Z,88.60
2018-06-17T05:16:07.789Z,88.30
2018-06-17T05:18:36.396Z,87.90
2018-06-17T05:21:04.836Z,88.60
2018-06-17T05:23:33.355Z,87.90
2018-06-17T05:26:01.675Z,87.90
2018-06-17T05:28:29.974Z,88.30
2018-06-17T05:30:58.352Z,87.60
2018-06-17T05:33:26.720Z,88.40
2018-06-17T05:35:55.183Z,88.40
2018-06-17T05:38:23.537Z,88.20
2018-06-17T05:40:52.025Z,89.20
2018-06-17T05:43:20.341Z,89.20
2018-06-17T05:45:48.686Z,88.70
2018-06-17T05:48:17.029Z,88.50
2018-06-17T05:50:45.889Z,88.00
2018-06-17T05:53:14.249Z,87.60
2018-06-17T05:55:42.684Z,88.10
2018-06-17T05:58:11.006Z,87.20
2018-06-17T06:03:08.097Z,86.30
2018-06-17T06:05:36.406Z,86.80
2018-06-17T06:08:04.809Z,86.70
2018-06-17T06:10:33.493Z,86.70
2018-06-17T06:13:01.813Z,86.70
2018-06-17T06:15:30.109Z,86.60
2018-06-17T06:17:58.646Z,87.30
2018-06-17T06:20:27.027Z,86.50
2018-06-17T06:22:55.370Z,86.70
2018-06-17T06:25:24.008Z,86.60
2018-06-17T06:27:52.422Z,86.60
2018-06-17T06:30:20.725Z,86.60
2018-06-17T06:32:49.147Z,85.40
2018-06-17T06:40:13.773Z,85.00
2018-06-17T06:42:42.069Z,84.80
2018-06-17T06:45:10.406Z,84.90
2018-06-17T06:47:39.594Z,84.30
2018-06-17T06:50:07.994Z,83.40
2018-06-17T06:52:37.129Z,83.80
2018-06-17T06:55:05.676Z,84.10
2018-06-17T06:57:34.099Z,84.00
2018-06-17T07:00:02.485Z,84.40
2018-06-17T07:02:42.016Z,84.40
2018-06-17T07:05:21.621Z,83.60
2018-06-17T07:08:01.767Z,83.50
2018-06-17T07:10:30.512Z,83.30
2018-06-17T07:12:58.826Z,83.70
2018-06-17T07:15:39.094Z,82.30
2018-06-17T07:18:18.729Z,83.50
2018-06-17T07:20:47.573Z,83.50
2018-06-17T07:23:15.897Z,83.10
2018-06-17T07:26:53.818Z,84.00
2018-06-17T07:29:34.688Z,82.60
2018-06-17T07:32:03.213Z,82.70
2018-06-17T07:34:31.541Z,83.20
2018-06-17T07:36:59.913Z,83.40
2018-06-17T07:41:35.888Z,84.70
2018-06-17T07:44:04.293Z,84.00
2018-06-17T07:46:32.622Z,83.50
2018-06-17T07:49:39.790Z,82.00
2018-06-17T07:52:20.099Z,82.00
2018-06-17T07:54:48.612Z,83.00
2018-06-17T07:57:18.237Z,82.90
2018-06-17T07:59:46.573Z,81.20
2018-06-17T08:02:15.271Z,81.70
2018-06-17T08:04:43.646Z,82.00
2018-06-17T08:07:11.965Z,82.80
2018-06-17T08:09:40.321Z,82.80
2018-06-17T08:12:09.400Z,82.60
2018-06-17T08:14:37.807Z,82.60
2018-06-17T08:17:06.310Z,83.30
2018-06-17T08:19:34.617Z,83.60
2018-06-17T08:22:03.726Z,83.00
2018-06-17T08:24:32.663Z,82.30
2018-06-17T08:27:00.981Z,81.90
2018-06-17T08:29:29.321Z,81.90
2018-06-17T08:31:58.741Z,82.00
2018-06-17T08:34:27.125Z,82.30
2018-06-17T08:36:55.429Z,81.00
2018-06-17T08:39:24.659Z,80.80
2018-06-17T08:41:52.980Z,80.00
2018-06-17T08:44:21.628Z,81.10
2018-06-17T08:46:50.354Z,81.20
2018-06-17T08:49:19.380Z,81.20
2018-06-17T08:51:47.697Z,81.60
2018-06-17T08:54:16.202Z,80.90
2018-06-17T08:56:44.594Z,80.90
2018-06-17T08:59:12.911Z,80.80
2018-06-17T09:01:41.229Z,80.70
2018-06-17T09:04:09.596Z,81.40
2018-06-17T09:06:37.873Z,81.60
2018-06-17T09:09:08.862Z,81.20
2018-06-17T09:11:37.192Z,80.80
2018-06-17T09:14:05.507Z,80.10
2018-06-17T09:16:34.684Z,80.60
2018-06-17T09:19:02.947Z,80.90
2018-06-17T09:21:31.218Z,81.20
2018-06-17T09:23:59.718Z,80.70
2018-06-17T09:26:28.136Z,80.10
2018-06-17T09:28:56.733Z,80.10
2018-06-17T09:31:25.269Z,79.70
2018-06-17T09:33:53.557Z,79.90
2018-06-17T09:36:21.814Z,79.40
2018-06-17T09:38:50.094Z,79.10
2018-06-17T09:41:18.393Z,79.20
2018-06-17T09:43:46.668Z,77.80
2018-06-17T09:46:14.938Z,77.70
2018-06-17T09:48:43.220Z,78.60
2018-06-17T09:53:39.544Z,77.60
2018-06-17T09:56:07.806Z,76.60
2018-06-17T09:58:36.133Z,76.00
2018-06-17T10:01:05.086Z,77.20
2018-06-17T10:03:33.454Z,77.80
2018-06-17T10:06:01.718Z,77.60
2018-06-17T10:08:30.026Z,78.60
2018-06-17T10:11:02.212Z,78.60
2018-06-17T10:13:31.887Z,78.00
2018-06-17T10:16:00.246Z,78.50
2018-06-17T10:18:28.973Z,78.30
2018-06-17T10:20:57.458Z,79.10
2018-06-17T10:23:25.914Z,79.50
2018-06-17T10:25:54.261Z,78.00
2018-06-17T10:30:53.865Z,77.80
2018-06-17T10:33:22.340Z,77.00
2018-06-17T10:35:50.617Z,77.50
2018-06-17T10:38:18.889Z,76.60
2018-06-17T10:40:47.208Z,75.80
2018-06-17T10:43:18.877Z,74.50
2018-06-17T10:45:47.146Z,74.50
2018-06-17T10:50:43.841Z,74.20
2018-06-17T10:53:12.239Z,74.80
2018-06-17T10:55:41.559Z,76.00
2018-06-17T10:58:09.834Z,75.20
2018-06-17T11:00:39.012Z,75.10
2018-06-17T11:03:07.266Z,74.90
2018-06-17T11:05:35.603Z,74.70
2018-06-17T11:08:03.840Z,75.40
2018-06-17T11:10:32.107Z,74.60
2018-06-17T11:13:00.570Z,75.30
2018-06-17T11:15:28.837Z,75.30
2018-06-17T11:17:57.093Z,75.50
2018-06-17T11:20:25.485Z,75.20
2018-06-17T11:22:53.734Z,75.50
2018-06-17T11:25:21.991Z,75.30
2018-06-17T11:27:50.373Z,75.00
2018-06-17T11:30:18.711Z,75.10
2018-06-17T11:32:46.973Z,74.80
2018-06-17T11:35:15.286Z,73.40
2018-06-17T11:37:43.556Z,74.70
2018-06-17T11:40:11.841Z,75.10
2018-06-17T11:42:40.121Z,75.70
2018-06-17T11:45:08.429Z,74.30
2018-06-17T11:47:36.725Z,74.30
2018-06-17T11:50:05.249Z,73.80
2018-06-17T11:52:33.529Z,74.10
2018-06-17T11:55:01.797Z,74.30
2018-06-17T11:57:30.053Z,74.80
2018-06-17T11:59:58.337Z,74.80
2018-06-17T12:02:26.597Z,75.70
2018-06-17T12:04:54.891Z,75.70
2018-06-17T12:07:23.176Z,75.70
2018-06-17T12:09:51.432Z,74.70
2018-06-17T12:12:19.733Z,74.50
2018-06-17T12:14:48.031Z,73.40
2018-06-17T12:17:16.316Z,72.70
2018-06-17T12:19:44.741Z,72.00
2018-06-17T12:22:13.049Z,72.00
2018-06-17T12:24:41.813Z,71.10
2018-06-17T12:27:12.397Z,70.10
2018-06-17T12:29:40.801Z,70.60
2018-06-17T12:32:09.161Z,69.70
2018-06-17T12:34:37.562Z,70.00
2018-06-17T12:37:05.892Z,68.60
2018-06-17T12:39:34.375Z,68.20
2018-06-17T12:42:03.113Z,69.40
2018-06-17T12:46:59.585Z,68.20
2018-06-17T12:49:27.996Z,69.20
2018-06-17T12:51:56.286Z,69.70
2018-06-17T12:54:24.604Z,70.70
2018-06-17T12:56:53.069Z,71.60
2018-06-17T12:59:21.375Z,72.00
2018-06-17T13:01:49.760Z,73.10
2018-06-17T13:04:18.713Z,73.50
2018-06-17T13:06:47.034Z,71.90
2018-06-17T13:09:15.293Z,72.20
2018-06-17T13:11:43.580Z,72.20
2018-06-17T13:14:11.853Z,69.90
2018-06-17T13:16:40.134Z,69.30
2018-06-17T13:19:08.557Z,68.60
2018-06-17T13:21:36.914Z,68.50
2018-06-17T13:24:05.245Z,67.00
2018-06-17T13:31:30.337Z,67.80
2018-06-17T13:33:59.200Z,67.30
2018-06-17T13:36:27.512Z,67.30
2018-06-17T13:38:55.871Z,69.70
2018-06-17T13:41:24.286Z,70.00
2018-06-17T13:43:52.579Z,69.40
2018-06-17T13:46:20.969Z,70.10
2018-06-17T13:48:49.423Z,70.90
2018-06-17T13:51:17.876Z,69.90
2018-06-17T13:53:50.858Z,69.60
2018-06-17T13:56:19.145Z,70.00
2018-06-17T13:58:47.629Z,70.40
2018-06-17T14:01:15.901Z,70.70
2018-06-17T14:03:44.426Z,70.90
2018-06-17T14:06:12.981Z,72.00
2018-06-17T14:08:41.416Z,72.50
2018-06-17T14:11:09.977Z,73.00
2018-06-17T14:13:38.245Z,74.20
2018-06-17T14:16:06.729Z,73.00
2018-06-17T14:18:35.298Z,71.90
2018-06-17T14:21:03.794Z,72.40
2018-06-17T14:23:32.603Z,72.20
2018-06-17T14:26:01.073Z,70.60
2018-06-17T14:28:31.325Z,69.60
2018-06-17T14:30:59.600Z,69.00
2018-06-17T14:33:28.525Z,68.80
2018-06-17T14:35:56.925Z,68.30
2018-06-17T14:38:25.248Z,69.00
2018-06-17T14:40:58.921Z,68.60
2018-06-17T14:43:32.644Z,72.70
2018-06-17T14:46:06.233Z,77.20
2018-06-17T14:48:41.226Z,80.40
2018-06-17T14:53:16.369Z,81.80
2018-06-17T14:55:44.890Z,83.10
2018-06-17T14:58:13.213Z,83.30
2018-06-17T15:00:41.521Z,85.90
2018-06-17T15:03:09.883Z,87.10
2018-06-17T15:05:38.224Z,89.60
2018-06-17T15:08:06.843Z,91.00
2018-06-17T15:10:35.432Z,91.70
2018-06-17T15:13:03.861Z,91.20
2018-06-17T15:15:32.342Z,91.40
2018-06-17T15:18:00.801Z,91.90
2018-06-17T15:20:29.213Z,92.10
2018-06-17T15:22:57.581Z,92.00
2018-06-17T15:25:26.915Z,91.50
2018-06-17T15:27:55.281Z,90.90
2018-06-17T15:32:57.861Z,91.30
2018-06-17T15:38:05.292Z,91.20
2018-06-17T15:40:38.965Z,91.30
2018-06-17T15:43:07.985Z,91.20
2018-06-17T15:45:36.990Z,91.60
2018-06-17T15:48:06.062Z,91.60
2018-06-17T15:50:35.066Z,90.90
2018-06-17T15:53:03.413Z,89.80
2018-06-17T15:55:31.804Z,90.20
2018-06-17T15:58:00.576Z,90.00
2018-06-17T16:00:28.982Z,90.00
2018-06-17T16:02:57.517Z,88.70
2018-06-17T16:05:25.989Z,88.20
2018-06-17T16:07:54.284Z,88.30
2018-06-17T16:10:23.725Z,87.30
2018-06-17T16:12:57.462Z,87.90
2018-06-17T16:18:04.834Z,88.20
2018-06-17T16:20:38.561Z,87.80
2018-06-17T16:25:35.026Z,89.00
2018-06-17T16:28:03.637Z,88.50
2018-06-17T16:30:32.213Z,88.10
2018-06-17T16:33:00.579Z,87.70
2018-06-17T16:35:29.829Z,88.20
2018-06-17T16:37:58.109Z,87.60
2018-06-17T16:40:26.542Z,87.80
2018-06-17T16:42:54.833Z,88.10
2018-06-17T16:45:23.174Z,87.30
2018-06-17T16:47:51.474Z,88.30
2018-06-17T16:50:19.857Z,88.10
2018-06-17T16:52:53.945Z,89.50
2018-06-17T16:55:27.689Z,89.00
2018-06-17T16:58:01.381Z,88.30
2018-06-17T17:00:29.674Z,88.90
2018-06-17T17:02:58.480Z,88.50
2018-06-17T17:05:26.826Z,89.50
2018-06-17T17:07:55.113Z,88.00
2018-06-17T17:10:23.377Z,89.00
2018-06-17T17:12:51.632Z,88.40
2018-06-17T17:15:19.949Z,89.50
2018-06-17T17:17:48.228Z,88.80
2018-06-17T17:20:16.486Z,88.60
2018-06-17T17:22:44.769Z,88.40
2018-06-17T17:25:13.059Z,89.00
2018-06-17T17:27:41.327Z,89.30
2018-06-17T17:30:09.680Z,89.00
2018-06-17T17:32:43.453Z,88.50
2018-06-17T17:35:18.086Z,89.70
2018-06-17T17:37:51.783Z,90.00
2018-06-17T17:40:25.621Z,89.00
2018-06-17T17:42:53.948Z,89.90
2018-06-17T17:45:23.647Z,89.70
2018-06-17T17:47:52.106Z,90.00
2018-06-17T17:50:20.444Z,90.00
2018-06-17T17:55:16.869Z,90.00
2018-06-17T17:57:45.233Z,90.10
2018-06-17T18:00:13.696Z,89.50
2018-06-17T18:02:42.181Z,90.00
2018-06-17T18:05:10.587Z,90.30
2018-06-17T18:07:38.929Z,90.40
2018-06-17T18:10:07.561Z,90.60
2018-06-17T18:12:35.916Z,90.30
2018-06-17T18:15:04.357Z,90.50
2018-06-17T18:17:32.994Z,90.50
2018-06-17T18:20:01.302Z,90.50
2018-06-17T18:25:03.307Z,90.50
2018-06-17T18:27:37.060Z,90.50
2018-06-17T18:30:11.234Z,90.40
2018-06-17T18:32:44.985Z,90.60
2018-06-17T18:35:18.809Z,90.20
2018-06-17T18:37:47.517Z,90.70
2018-06-17T18:40:15.875Z,90.60
2018-06-17T18:42:44.225Z,90.80
2018-06-17T18:45:12.593Z,90.90
2018-06-17T18:47:40.866Z,90.40
2018-06-17T18:50:11.030Z,90.50
2018-06-17T18:52:39.517Z,90.80
2018-06-17T18:55:08.415Z,90.90
2018-06-17T19:00:05.434Z,90.70
2018-06-17T19:02:33.766Z,90.40
2018-06-17T19:05:02.339Z,90.50
2018-06-17T19:07:30.638Z,90.60
2018-06-17T19:12:37.785Z,90.60
2018-06-17T19:17:13.669Z,91.00
2018-06-17T19:19:42.097Z,90.70
2018-06-17T19:22:10.899Z,90.60
2018-06-17T19:24:39.469Z,90.90
2018-06-17T19:27:08.256Z,91.00
2018-06-17T19:29:36.634Z,91.00
2018-06-17T19:32:05.015Z,91.00
2018-06-17T19:34:33.369Z,90.90
2018-06-17T19:37:01.792Z,90.80
2018-06-17T19:39:30.775Z,90.70
2018-06-17T19:41:59.114Z,90.90
2018-06-17T19:44:27.466Z,91.00
2018-06-17T19:46:56.050Z,91.40
2018-06-17T19:49:30.537Z,91.00
2018-06-17T19:52:04.515Z,91.50
2018-06-17T19:54:38.143Z,91.10
2018-06-17T19:57:11.977Z,90.70
2018-06-17T19:59:45.556Z,90.80
2018-06-17T20:02:13.880Z,91.30
2018-06-17T20:04:42.227Z,90.50
2018-06-17T20:07:10.549Z,90.50
2018-06-17T20:09:38.866Z,90.80
2018-06-17T20:12:07.955Z,90.90
2018-06-17T20:14:36.418Z,90.60
2018-06-17T20:17:04.910Z,90.80
2018-06-17T20:19:33.501Z,90.30
2018-06-17T20:22:01.842Z,90.20
2018-06-17T20:24:30.333Z,89.40
2018-06-17T20:26:58.829Z,90.00
2018-06-17T20:32:00.620Z,90.20
2018-06-17T20:34:34.313Z,90.30
2018-06-17T20:39:41.528Z,91.30
2018-06-17T20:44:43.335Z,91.70
2018-06-17T20:47:11.681Z,92.30
2018-06-17T20:49:40.001Z,92.40
2018-06-17T20:52:09.057Z,92.40
2018-06-17T20:54:37.353Z,92.70
2018-06-17T20:57:05.828Z,92.80
2018-06-17T20:59:35.093Z,92.90
2018-06-17T21:02:03.418Z,92.80
2018-06-17T21:04:31.870Z,92.70
2018-06-17T21:07:00.158Z,93.20
2018-06-17T21:09:28.493Z,93.20
2018-06-17T21:11:57.185Z,93.40
2018-06-17T21:14:25.529Z,93.30
2018-06-17T21:16:53.858Z,93.40
2018-06-17T21:19:27.625Z,93.50
2018-06-17T21:22:01.290Z,93.50
2018-06-17T21:24:34.985Z,93.80
2018-06-17T21:27:08.663Z,93.80
2018-06-17T21:32:05.180Z,94.10
2018-06-17T21:34:33.462Z,94.00
2018-06-17T21:37:02.165Z,94.00
2018-06-17T21:39:30.481Z,94.00
2018-06-17T21:41:58.841Z,94.10
2018-06-17T21:44:27.214Z,94.00
2018-06-17T21:46:55.596Z,94.20
2018-06-17T21:49:24.028Z,94.30
2018-06-17T21:51:52.525Z,94.00
2018-06-17T21:54:20.828Z,94.20
2018-06-17T21:56:49.165Z,94.40
2018-06-17T21:59:17.578Z,94.30
2018-06-17T22:01:46.473Z,94.30
2018-06-17T22:04:20.277Z,94.40
2018-06-17T22:06:48.903Z,94.50
2018-06-17T22:13:57.777Z,94.60
2018-06-17T22:16:31.378Z,94.60
2018-06-17T22:18:59.688Z,94.70
2018-06-17T22:21:28.030Z,94.60
2018-06-17T22:23:56.361Z,94.40
2018-06-17T22:26:24.686Z,94.70
2018-06-17T22:28:53.042Z,94.60
2018-06-17T22:31:21.518Z,94.60
2018-06-17T22:33:49.817Z,94.60
2018-06-17T22:36:18.133Z,94.50
2018-06-17T22:38:46.461Z,94.50
2018-06-17T22:41:14.807Z,94.70
2018-06-17T22:43:43.191Z,94.60
2018-06-17T22:46:11.608Z,94.70
2018-06-17T22:48:39.902Z,94.60
2018-06-17T22:51:08.254Z,94.30
2018-06-17T22:53:48.023Z,94.90
2018-06-17T22:56:21.753Z,94.80
2018-06-17T22:58:55.849Z,94.90
2018-06-17T23:01:29.481Z,94.70
2018-06-17T23:04:03.257Z,94.60
2018-06-17T23:06:36.858Z,94.40
2018-06-17T23:09:13.065Z,94.10
2018-06-17T23:11:41.749Z,93.90
2018-06-17T23:14:10.267Z,93.50
2018-06-17T23:16:39.065Z,93.50
2018-06-17T23:19:07.376Z,93.60
2018-06-17T23:21:35.709Z,93.30
2018-06-17T23:24:04.169Z,93.80
2018-06-17T23:26:32.504Z,93.90
2018-06-17T23:29:00.789Z,94.10
2018-06-17T23:31:29.897Z,93.80
2018-06-17T23:33:58.244Z,93.80
2018-06-17T23:36:26.601Z,93.10
2018-06-17T23:38:54.905Z,92.90
2018-06-17T23:41:23.197Z,92.90
2018-06-17T23:43:51.559Z,92.00
2018-06-17T23:46:25.278Z,91.90
2018-06-17T23:48:59.194Z,91.90
2018-06-17T23:51:32.834Z,91.30
2018-06-17T23:54:06.542Z,91.20
2018-06-17T23:56:34.881Z,90.80
2018-06-17T23:59:03.485Z,90.70
